createdAt,value
2023-03-23T15:59:49.819Z,100787.92
2023-03-23T16:02:23.796Z,100786.79
2023-03-23T16:04:54.749Z,100786.15
2023-03-23T16:07:25.629Z,100786.02
2023-03-23T16:09:56.540Z,100785.11
2023-03-23T16:12:27.481Z,100784.33
2023-03-23T16:14:58.238Z,100782.41
2023-03-23T16:17:29.146Z,100783.40
2023-03-23T16:19:59.888Z,100786.75
2023-03-23T16:22:30.688Z,100792.33
2023-03-23T16:25:02.197Z,100791.95
2023-03-23T16:27:33.035Z,100794.77
2023-03-23T16:30:04.951Z,100793.38
2023-03-23T16:35:06.303Z,100793.88
2023-03-23T16:37:37.185Z,100796.55
2023-03-23T16:40:09.859Z,100799.25
2023-03-23T16:42:40.729Z,100800.83
2023-03-23T16:45:12.041Z,100798.28
2023-03-23T16:47:43.088Z,100804.05
2023-03-23T16:50:14.647Z,100804.73
2023-03-23T16:52:47.572Z,100801.64
2023-03-23T16:55:18.374Z,100801.64
2023-03-23T16:57:49.241Z,100808.46
2023-03-23T17:00:22.210Z,100806.96
2023-03-23T17:02:53.189Z,100805.14
2023-03-23T17:05:24.577Z,100807.50
2023-03-23T17:07:56.010Z,100807.06
2023-03-23T17:10:28.340Z,100806.89
2023-03-23T17:12:59.196Z,100808.98
2023-03-23T17:15:29.985Z,100808.80
2023-03-23T17:18:02.009Z,100812.25
2023-03-23T17:20:32.943Z,100815.02
2023-03-23T17:23:03.864Z,100815.91
2023-03-23T17:25:34.720Z,100820.42
2023-03-23T17:28:07.003Z,100824.00
2023-03-23T17:30:38.377Z,100828.95
2023-03-23T17:33:09.228Z,100837.38
2023-03-23T17:35:40.068Z,100841.80
2023-03-23T17:41:17.307Z,100856.51
2023-03-23T17:43:48.276Z,100856.98
2023-03-23T17:46:19.643Z,100858.95
2023-03-23T17:48:50.533Z,100863.58
2023-03-23T17:51:21.480Z,100862.83
2023-03-23T17:53:52.434Z,100864.09
2023-03-23T17:56:23.403Z,100869.46
2023-03-23T17:58:54.181Z,100871.65
2023-03-23T18:01:25.114Z,100877.03
2023-03-23T18:03:57.049Z,100882.23
2023-03-23T18:06:29.235Z,100882.80
2023-03-23T18:09:00.549Z,100888.11
2023-03-23T18:11:31.215Z,100887.42
2023-03-23T18:14:02.328Z,100888.00
2023-03-23T18:16:33.125Z,100887.14
2023-03-23T18:19:07.839Z,100892.08
2023-03-23T18:21:39.117Z,100891.46
2023-03-23T18:24:10.632Z,100895.73
2023-03-23T18:26:41.698Z,100901.13
2023-03-23T18:29:12.402Z,100900.89
2023-03-23T18:31:44.309Z,100902.96
2023-03-23T18:34:15.848Z,100905.05
2023-03-23T18:36:47.448Z,100903.66
2023-03-23T18:39:18.489Z,100907.46
2023-03-23T18:41:49.269Z,100910.05
2023-03-23T18:44:20.041Z,100910.19
2023-03-23T18:46:50.675Z,100916.09
2023-03-23T18:49:21.424Z,100916.98
2023-03-23T18:51:54.840Z,100916.24
2023-03-23T18:54:25.866Z,100917.79
2023-03-23T18:57:00.448Z,100919.33
2023-03-23T18:59:34.004Z,100918.65
2023-03-23T19:02:04.935Z,100917.80
2023-03-23T19:04:36.659Z,100914.78
2023-03-23T19:07:08.501Z,100913.73
2023-03-23T19:09:39.393Z,100909.27
2023-03-23T19:12:11.865Z,100905.33
2023-03-23T19:14:42.938Z,100907.89
2023-03-23T19:17:29.867Z,100913.57
2023-03-23T19:21:34.156Z,100912.39
2023-03-23T19:23:53.473Z,100914.84
2023-03-23T19:26:26.045Z,100917.05
2023-03-23T19:31:31.802Z,100914.27
2023-03-23T19:34:03.213Z,100915.71
2023-03-23T19:36:36.993Z,100914.17
2023-03-23T19:39:08.952Z,100914.13
2023-03-23T19:41:41.003Z,100916.73
2023-03-23T19:44:12.731Z,100917.63
2023-03-23T19:46:52.939Z,100918.15
2023-03-23T19:49:24.689Z,100914.62
2023-03-23T19:52:07.167Z,100916.77
2023-03-23T19:54:41.545Z,100914.19
2023-03-23T19:57:12.439Z,100911.08
2023-03-23T19:59:44.303Z,100908.98
2023-03-23T20:02:17.415Z,100911.48
2023-03-23T20:04:48.551Z,100913.04
2023-03-23T20:07:21.354Z,100911.18
2023-03-23T20:09:52.579Z,100907.56
2023-03-23T20:12:23.490Z,100910.52
2023-03-23T20:14:54.244Z,100915.73
2023-03-23T20:17:25.126Z,100912.64
2023-03-23T20:19:56.775Z,100916.55
2023-03-23T20:22:27.634Z,100917.73
2023-03-23T20:25:00.512Z,100918.49
2023-03-23T20:27:32.350Z,100920.61
2023-03-23T20:30:06.899Z,100922.27
2023-03-23T20:32:40.824Z,100926.52
2023-03-23T20:35:14.683Z,100925.36
2023-03-23T20:37:45.626Z,100928.02
2023-03-23T20:40:16.503Z,100932.07
2023-03-23T20:42:47.570Z,100927.46
2023-03-23T20:45:18.595Z,100928.97
2023-03-23T20:47:49.516Z,100928.45
2023-03-23T20:50:20.371Z,100928.70
2023-03-23T20:52:51.127Z,100923.02
2023-03-23T20:55:21.898Z,100923.40
2023-03-23T20:57:52.685Z,100917.66
2023-03-23T21:00:23.611Z,100917.55
2023-03-23T21:02:54.544Z,100915.68
2023-03-23T21:05:25.494Z,100914.33
2023-03-23T21:07:59.220Z,100912.65
2023-03-23T21:10:29.964Z,100911.45
2023-03-23T21:13:01.358Z,100913.00
2023-03-23T21:15:32.386Z,100908.45
2023-03-23T21:18:03.402Z,100906.02
2023-03-23T21:20:34.552Z,100902.14
2023-03-23T21:23:06.288Z,100905.19
2023-03-23T21:25:38.152Z,100901.95
2023-03-23T21:28:09.009Z,100903.11
2023-03-23T21:30:41.970Z,100902.86
2023-03-23T21:33:13.152Z,100902.09
2023-03-23T21:35:44.139Z,100900.82
2023-03-23T21:38:20.000Z,100899.98
2023-03-23T21:40:51.059Z,100900.06
2023-03-23T21:43:27.650Z,100900.33
2023-03-23T21:46:03.083Z,100898.94
2023-03-23T21:48:44.333Z,100897.82
2023-03-23T21:51:15.577Z,100902.48
2023-03-23T21:53:47.044Z,100900.79
2023-03-23T21:56:22.817Z,100902.00
2023-03-23T21:58:53.880Z,100900.25
2023-03-23T22:01:24.996Z,100893.05
2023-03-23T22:03:58.345Z,100896.27
2023-03-23T22:06:31.137Z,100895.28
2023-03-23T22:09:05.510Z,100891.57
2023-03-23T22:11:37.600Z,100891.96
2023-03-23T22:14:08.656Z,100890.14
2023-03-23T22:16:41.588Z,100892.35
2023-03-23T22:19:12.761Z,100889.78
2023-03-23T22:21:43.939Z,100885.98
2023-03-23T22:24:15.114Z,100885.19
2023-03-23T22:26:47.619Z,100885.84
2023-03-23T22:29:21.006Z,100884.84
2023-03-23T22:31:52.093Z,100886.42
2023-03-23T22:34:22.905Z,100886.45
2023-03-23T22:36:53.863Z,100888.41
2023-03-23T22:39:24.760Z,100888.05
2023-03-23T22:41:55.796Z,100888.23
2023-03-23T22:44:27.139Z,100888.55
2023-03-23T22:46:58.000Z,100884.67
2023-03-23T22:49:28.943Z,100885.25
2023-03-23T22:51:59.764Z,100881.74
2023-03-23T22:54:30.815Z,100884.77
2023-03-23T22:57:01.634Z,100883.02
2023-03-23T22:59:32.723Z,100885.17
2023-03-23T23:02:06.804Z,100884.30
2023-03-23T23:06:37.563Z,100884.71
2023-03-23T23:07:56.952Z,100882.83
2023-03-23T23:10:28.101Z,100881.27
2023-03-23T23:12:59.185Z,100884.58
2023-03-23T23:15:30.274Z,100875.23
2023-03-23T23:18:01.759Z,100878.47
2023-03-23T23:20:33.384Z,100881.38
2023-03-23T23:23:04.192Z,100884.33
2023-03-23T23:25:35.245Z,100880.61
2023-03-23T23:28:06.706Z,100879.53
2023-03-23T23:30:38.046Z,100873.36
2023-03-23T23:33:09.387Z,100871.81
2023-03-23T23:35:40.704Z,100864.48
2023-03-23T23:38:12.772Z,100861.29
2023-03-23T23:40:44.446Z,100865.84
2023-03-23T23:43:16.285Z,100865.80
2023-03-23T23:45:47.293Z,100872.52
2023-03-23T23:48:18.485Z,100875.09
2023-03-23T23:50:49.351Z,100876.91
2023-03-23T23:53:23.049Z,100875.44
2023-03-23T23:55:54.319Z,100868.55
2023-03-23T23:58:25.288Z,100865.17
